sensor_id;sensor_type;location;lat;lon;timestamp;P1;durP1;ratioP1;P2;durP2;ratioP2
17917;SDS011;9084;50.956;3.106;2022-08-01T00:01:17;8.52;;;6.32;;
17917;SDS011;9084;50.956;3.106;2022-08-01T00:03:45;9.85;;;6.95;;
17917;SDS011;9084;50.956;3.106;2022-08-01T00:06:11;8.43;;;6.75;;
17917;SDS011;9084;50.956;3.106;2022-08-01T00:08:42;9.77;;;7.22;;
17917;SDS011;9084;50.956;3.106;2022-08-01T00:11:08;8.75;;;7.93;;
17917;SDS011;9084;50.956;3.106;2022-08-01T00:13:34;11.35;;;8.70;;
17917;SDS011;9084;50.956;3.106;2022-08-01T00:16:00;11.35;;;8.25;;
17917;SDS011;9084;50.956;3.106;2022-08-01T00:18:28;10.77;;;8.60;;
17917;SDS011;9084;50.956;3.106;2022-08-01T00:20:56;11.38;;;8.68;;
17917;SDS011;9084;50.956;3.106;2022-08-01T00:23:22;10.27;;;8.40;;
17917;SDS011;9084;50.956;3.106;2022-08-01T00:25:49;9.60;;;8.60;;
17917;SDS011;9084;50.956;3.106;2022-08-01T00:28:16;11.65;;;9.50;;
17917;SDS011;9084;50.956;3.106;2022-08-01T00:30:41;11.75;;;9.65;;
17917;SDS011;9084;50.956;3.106;2022-08-01T00:33:07;12.73;;;10.43;;
17917;SDS011;9084;50.956;3.106;2022-08-01T00:35:33;12.30;;;10.85;;
17917;SDS011;9084;50.956;3.106;2022-08-01T00:37:59;17.58;;;12.82;;
17917;SDS011;9084;50.956;3.106;2022-08-01T00:40:27;14.95;;;13.45;;
17917;SDS011;9084;50.956;3.106;2022-08-01T00:42:56;16.65;;;13.50;;
17917;SDS011;9084;50.956;3.106;2022-08-01T00:45:24;14.93;;;13.35;;
17917;SDS011;9084;50.956;3.106;2022-08-01T00:47:52;17.75;;;12.30;;
17917;SDS011;9084;50.956;3.106;2022-08-01T00:50:18;13.90;;;12.30;;
17917;SDS011;9084;50.956;3.106;2022-08-01T00:52:44;16.27;;;11.85;;
17917;SDS011;9084;50.956;3.106;2022-08-01T00:55:12;14.35;;;11.13;;
17917;SDS011;9084;50.956;3.106;2022-08-01T00:57:39;11.63;;;9.13;;
17917;SDS011;9084;50.956;3.106;2022-08-01T01:00:08;12.05;;;9.18;;
17917;SDS011;9084;50.956;3.106;2022-08-01T01:02:34;18.23;;;10.30;;
17917;SDS011;9084;50.956;3.106;2022-08-01T01:05:01;14.98;;;8.65;;
17917;SDS011;9084;50.956;3.106;2022-08-01T01:07:30;13.90;;;7.97;;
17917;SDS011;9084;50.956;3.106;2022-08-01T01:12:55;14.68;;;6.82;;
17917;SDS011;9084;50.956;3.106;2022-08-01T01:15:33;16.10;;;7.40;;
17917;SDS011;9084;50.956;3.106;2022-08-01T01:20:41;10.18;;;5.78;;
17917;SDS011;9084;50.956;3.106;2022-08-01T01:31:40;10.00;;;4.38;;
17917;SDS011;9084;50.956;3.106;2022-08-01T01:34:15;18.10;;;6.60;;
17917;SDS011;9084;50.956;3.106;2022-08-01T01:36:47;15.20;;;5.72;;
17917;SDS011;9084;50.956;3.106;2022-08-01T01:39:14;8.95;;;5.03;;
17917;SDS011;9084;50.956;3.106;2022-08-01T01:41:43;10.48;;;4.90;;
17917;SDS011;9084;50.956;3.106;2022-08-01T01:44:11;8.73;;;4.65;;
17917;SDS011;9084;50.956;3.106;2022-08-01T01:46:39;9.60;;;4.82;;
17917;SDS011;9084;50.956;3.106;2022-08-01T01:49:06;7.40;;;4.20;;
17917;SDS011;9084;50.956;3.106;2022-08-01T01:51:36;8.40;;;4.40;;
17917;SDS011;9084;50.956;3.106;2022-08-01T01:54:04;6.95;;;3.83;;
17917;SDS011;9084;50.956;3.106;2022-08-01T01:56:31;8.07;;;3.53;;
17917;SDS011;9084;50.956;3.106;2022-08-01T01:59:01;7.70;;;3.90;;
17917;SDS011;9084;50.956;3.106;2022-08-01T02:01:30;5.03;;;4.07;;
17917;SDS011;9084;50.956;3.106;2022-08-01T02:03:58;11.73;;;4.78;;
17917;SDS011;9084;50.956;3.106;2022-08-01T02:06:28;6.93;;;3.90;;
17917;SDS011;9084;50.956;3.106;2022-08-01T02:08:56;6.15;;;3.28;;
17917;SDS011;9084;50.956;3.106;2022-08-01T02:11:24;6.18;;;3.17;;
17917;SDS011;9084;50.956;3.106;2022-08-01T02:14:01;3.60;;;3.30;;
17917;SDS011;9084;50.956;3.106;2022-08-01T02:16:33;5.85;;;3.17;;
17917;SDS011;9084;50.956;3.106;2022-08-01T02:19:04;4.38;;;2.95;;
17917;SDS011;9084;50.956;3.106;2022-08-01T02:21:40;3.22;;;2.78;;
17917;SDS011;9084;50.956;3.106;2022-08-01T02:24:32;3.55;;;3.03;;
17917;SDS011;9084;50.956;3.106;2022-08-01T02:27:28;2.95;;;2.63;;
17917;SDS011;9084;50.956;3.106;2022-08-01T02:30:00;5.32;;;2.88;;
17917;SDS011;9084;50.956;3.106;2022-08-01T02:35:04;6.40;;;2.60;;
17917;SDS011;9084;50.956;3.106;2022-08-01T02:37:37;4.45;;;3.13;;
17917;SDS011;9084;50.956;3.106;2022-08-01T02:40:09;4.97;;;3.22;;
17917;SDS011;9084;50.956;3.106;2022-08-01T02:42:39;5.50;;;3.00;;
17917;SDS011;9084;50.956;3.106;2022-08-01T02:45:12;5.28;;;2.50;;
17917;SDS011;9084;50.956;3.106;2022-08-01T02:48:03;4.47;;;2.90;;
17917;SDS011;9084;50.956;3.106;2022-08-01T02:50:34;3.60;;;2.60;;
17917;SDS011;9084;50.956;3.106;2022-08-01T02:53:02;3.70;;;2.50;;
17917;SDS011;9084;50.956;3.106;2022-08-01T02:55:31;5.93;;;3.03;;
17917;SDS011;9084;50.956;3.106;2022-08-01T02:57:59;5.85;;;2.50;;
17917;SDS011;9084;50.956;3.106;2022-08-01T03:00:29;7.25;;;3.03;;
17917;SDS011;9084;50.956;3.106;2022-08-01T03:02:56;5.32;;;3.30;;
17917;SDS011;9084;50.956;3.106;2022-08-01T03:05:23;5.32;;;2.70;;
17917;SDS011;9084;50.956;3.106;2022-08-01T03:07:51;3.60;;;2.42;;
17917;SDS011;9084;50.956;3.106;2022-08-01T03:10:18;3.38;;;2.28;;
17917;SDS011;9084;50.956;3.106;2022-08-01T03:12:47;5.53;;;3.20;;
17917;SDS011;9084;50.956;3.106;2022-08-01T03:15:17;3.47;;;3.00;;
17917;SDS011;9084;50.956;3.106;2022-08-01T03:17:44;3.22;;;2.15;;
17917;SDS011;9084;50.956;3.106;2022-08-01T03:20:12;2.95;;;2.22;;
17917;SDS011;9084;50.956;3.106;2022-08-01T03:22:40;5.32;;;2.58;;
17917;SDS011;9084;50.956;3.106;2022-08-01T03:25:08;2.72;;;2.22;;
17917;SDS011;9084;50.956;3.106;2022-08-01T03:27:36;4.00;;;2.30;;
17917;SDS011;9084;50.956;3.106;2022-08-01T03:30:05;3.22;;;2.63;;
17917;SDS011;9084;50.956;3.106;2022-08-01T03:32:34;4.97;;;2.38;;
17917;SDS011;9084;50.956;3.106;2022-08-01T03:35:02;4.55;;;2.42;;
17917;SDS011;9084;50.956;3.106;2022-08-01T03:37:34;3.88;;;2.50;;
17917;SDS011;9084;50.956;3.106;2022-08-01T03:40:12;2.25;;;2.03;;
17917;SDS011;9084;50.956;3.106;2022-08-01T03:43:11;3.88;;;2.25;;
17917;SDS011;9084;50.956;3.106;2022-08-01T03:45:50;3.35;;;2.60;;
17917;SDS011;9084;50.956;3.106;2022-08-01T03:48:18;2.05;;;1.95;;
17917;SDS011;9084;50.956;3.106;2022-08-01T03:50:47;3.00;;;2.20;;
17917;SDS011;9084;50.956;3.106;2022-08-01T03:53:15;2.78;;;2.50;;
17917;SDS011;9084;50.956;3.106;2022-08-01T03:55:51;4.60;;;2.67;;
17917;SDS011;9084;50.956;3.106;2022-08-01T03:58:19;3.75;;;2.45;;
17917;SDS011;9084;50.956;3.106;2022-08-01T04:00:46;3.45;;;2.85;;
17917;SDS011;9084;50.956;3.106;2022-08-01T04:03:14;3.47;;;2.50;;
17917;SDS011;9084;50.956;3.106;2022-08-01T04:05:41;2.80;;;2.60;;
17917;SDS011;9084;50.956;3.106;2022-08-01T04:08:07;3.55;;;2.83;;
17917;SDS011;9084;50.956;3.106;2022-08-01T04:10:34;6.05;;;2.78;;
17917;SDS011;9084;50.956;3.106;2022-08-01T04:13:00;3.03;;;2.65;;
17917;SDS011;9084;50.956;3.106;2022-08-01T04:15:26;3.08;;;2.78;;
17917;SDS011;9084;50.956;3.106;2022-08-01T04:17:54;3.72;;;2.60;;
17917;SDS011;9084;50.956;3.106;2022-08-01T04:20:20;5.45;;;2.58;;
17917;SDS011;9084;50.956;3.106;2022-08-01T04:22:46;3.42;;;3.05;;
17917;SDS011;9084;50.956;3.106;2022-08-01T04:25:14;2.88;;;2.50;;
17917;SDS011;9084;50.956;3.106;2022-08-01T04:27:45;3.58;;;2.88;;
17917;SDS011;9084;50.956;3.106;2022-08-01T04:30:13;3.55;;;3.25;;
17917;SDS011;9084;50.956;3.106;2022-08-01T04:32:43;3.80;;;3.10;;
17917;SDS011;9084;50.956;3.106;2022-08-01T04:35:12;3.20;;;2.63;;
17917;SDS011;9084;50.956;3.106;2022-08-01T04:37:44;3.17;;;2.88;;
17917;SDS011;9084;50.956;3.106;2022-08-01T04:40:13;3.15;;;2.95;;
17917;SDS011;9084;50.956;3.106;2022-08-01T04:42:40;3.05;;;2.70;;
17917;SDS011;9084;50.956;3.106;2022-08-01T04:45:08;2.75;;;2.55;;
17917;SDS011;9084;50.956;3.106;2022-08-01T04:47:34;2.85;;;2.65;;
17917;SDS011;9084;50.956;3.106;2022-08-01T04:50:08;3.95;;;3.20;;
17917;SDS011;9084;50.956;3.106;2022-08-01T04:52:35;3.05;;;2.78;;
17917;SDS011;9084;50.956;3.106;2022-08-01T04:55:03;4.53;;;3.22;;
17917;SDS011;9084;50.956;3.106;2022-08-01T04:57:34;3.30;;;3.05;;
17917;SDS011;9084;50.956;3.106;2022-08-01T05:00:02;3.10;;;2.65;;
17917;SDS011;9084;50.956;3.106;2022-08-01T05:02:32;2.85;;;2.65;;
17917;SDS011;9084;50.956;3.106;2022-08-01T05:05:00;2.83;;;2.63;;
17917;SDS011;9084;50.956;3.106;2022-08-01T05:07:27;3.40;;;3.10;;
17917;SDS011;9084;50.956;3.106;2022-08-01T05:09:52;3.88;;;3.50;;
17917;SDS011;9084;50.956;3.106;2022-08-01T05:12:18;3.08;;;2.75;;
17917;SDS011;9084;50.956;3.106;2022-08-01T05:14:45;3.30;;;3.00;;
17917;SDS011;9084;50.956;3.106;2022-08-01T05:17:11;4.00;;;2.78;;
17917;SDS011;9084;50.956;3.106;2022-08-01T05:19:40;3.45;;;3.05;;
17917;SDS011;9084;50.956;3.106;2022-08-01T05:22:07;3.97;;;2.90;;
17917;SDS011;9084;50.956;3.106;2022-08-01T05:24:34;3.50;;;3.20;;
17917;SDS011;9084;50.956;3.106;2022-08-01T05:27:01;3.63;;;3.17;;
17917;SDS011;9084;50.956;3.106;2022-08-01T05:29:31;3.47;;;3.17;;
17917;SDS011;9084;50.956;3.106;2022-08-01T05:32:00;3.70;;;3.40;;
17917;SDS011;9084;50.956;3.106;2022-08-01T05:34:26;5.68;;;3.55;;
17917;SDS011;9084;50.956;3.106;2022-08-01T05:36:53;3.53;;;3.28;;
17917;SDS011;9084;50.956;3.106;2022-08-01T05:39:21;3.55;;;3.25;;
17917;SDS011;9084;50.956;3.106;2022-08-01T05:41:50;3.58;;;3.20;;
17917;SDS011;9084;50.956;3.106;2022-08-01T05:44:16;4.00;;;3.70;;
17917;SDS011;9084;50.956;3.106;2022-08-01T05:46:41;3.83;;;3.63;;
17917;SDS011;9084;50.956;3.106;2022-08-01T05:49:08;3.70;;;3.35;;
17917;SDS011;9084;50.956;3.106;2022-08-01T05:51:36;4.65;;;4.25;;
17917;SDS011;9084;50.956;3.106;2022-08-01T05:54:02;4.90;;;3.90;;
17917;SDS011;9084;50.956;3.106;2022-08-01T05:56:28;4.05;;;3.72;;
17917;SDS011;9084;50.956;3.106;2022-08-01T05:58:57;3.72;;;3.53;;
17917;SDS011;9084;50.956;3.106;2022-08-01T06:01:23;4.30;;;4.00;;
17917;SDS011;9084;50.956;3.106;2022-08-01T06:03:52;3.63;;;3.33;;
17917;SDS011;9084;50.956;3.106;2022-08-01T06:06:23;4.28;;;3.53;;
17917;SDS011;9084;50.956;3.106;2022-08-01T06:08:51;3.33;;;2.72;;
17917;SDS011;9084;50.956;3.106;2022-08-01T06:11:22;3.50;;;3.20;;
17917;SDS011;9084;50.956;3.106;2022-08-01T06:13:48;4.00;;;3.17;;
17917;SDS011;9084;50.956;3.106;2022-08-01T06:16:14;5.68;;;3.08;;
17917;SDS011;9084;50.956;3.106;2022-08-01T06:18:41;3.47;;;3.10;;
17917;SDS011;9084;50.956;3.106;2022-08-01T06:21:11;4.72;;;3.33;;
17917;SDS011;9084;50.956;3.106;2022-08-01T06:23:39;3.15;;;2.95;;
17917;SDS011;9084;50.956;3.106;2022-08-01T06:26:09;2.78;;;2.58;;
17917;SDS011;9084;50.956;3.106;2022-08-01T06:28:36;3.22;;;2.95;;
17917;SDS011;9084;50.956;3.106;2022-08-01T06:31:02;2.97;;;2.72;;
17917;SDS011;9084;50.956;3.106;2022-08-01T06:33:32;3.60;;;3.30;;
17917;SDS011;9084;50.956;3.106;2022-08-01T06:35:58;3.10;;;2.90;;
17917;SDS011;9084;50.956;3.106;2022-08-01T06:38:25;4.15;;;2.65;;
17917;SDS011;9084;50.956;3.106;2022-08-01T06:40:56;4.20;;;3.00;;
17917;SDS011;9084;50.956;3.106;2022-08-01T06:43:21;3.13;;;2.92;;
17917;SDS011;9084;50.956;3.106;2022-08-01T06:45:50;3.33;;;3.03;;
17917;SDS011;9084;50.956;3.106;2022-08-01T06:48:16;3.30;;;3.00;;
17917;SDS011;9084;50.956;3.106;2022-08-01T06:50:42;3.85;;;3.08;;
17917;SDS011;9084;50.956;3.106;2022-08-01T06:53:09;3.25;;;2.72;;
17917;SDS011;9084;50.956;3.106;2022-08-01T06:55:35;2.95;;;2.65;;
17917;SDS011;9084;50.956;3.106;2022-08-01T06:58:01;3.92;;;2.80;;
17917;SDS011;9084;50.956;3.106;2022-08-01T07:00:26;3.08;;;2.78;;
17917;SDS011;9084;50.956;3.106;2022-08-01T07:02:56;3.38;;;2.78;;
17917;SDS011;9084;50.956;3.106;2022-08-01T07:05:27;3.13;;;2.83;;
17917;SDS011;9084;50.956;3.106;2022-08-01T07:07:55;1.67;;;1.58;;
17917;SDS011;9084;50.956;3.106;2022-08-01T07:10:21;2.80;;;2.30;;
17917;SDS011;9084;50.956;3.106;2022-08-01T07:12:48;2.67;;;1.92;;
17917;SDS011;9084;50.956;3.106;2022-08-01T07:15:14;3.15;;;1.90;;
17917;SDS011;9084;50.956;3.106;2022-08-01T07:17:40;2.63;;;1.60;;
17917;SDS011;9084;50.956;3.106;2022-08-01T07:20:11;1.63;;;1.50;;
17917;SDS011;9084;50.956;3.106;2022-08-01T07:22:38;2.22;;;1.67;;
17917;SDS011;9084;50.956;3.106;2022-08-01T07:25:06;1.38;;;1.10;;
17917;SDS011;9084;50.956;3.106;2022-08-01T07:27:40;1.88;;;1.65;;
17917;SDS011;9084;50.956;3.106;2022-08-01T07:30:12;1.70;;;1.60;;
17917;SDS011;9084;50.956;3.106;2022-08-01T07:32:40;2.42;;;1.83;;
17917;SDS011;9084;50.956;3.106;2022-08-01T07:35:06;1.77;;;1.30;;
17917;SDS011;9084;50.956;3.106;2022-08-01T07:37:34;2.03;;;1.45;;
17917;SDS011;9084;50.956;3.106;2022-08-01T07:40:03;1.27;;;1.02;;
17917;SDS011;9084;50.956;3.106;2022-08-01T07:42:32;1.60;;;1.48;;
17917;SDS011;9084;50.956;3.106;2022-08-01T07:45:00;2.10;;;1.60;;
17917;SDS011;9084;50.956;3.106;2022-08-01T07:47:26;1.48;;;1.38;;
17917;SDS011;9084;50.956;3.106;2022-08-01T07:49:58;1.35;;;1.10;;
17917;SDS011;9084;50.956;3.106;2022-08-01T07:52:25;2.85;;;1.20;;
17917;SDS011;9084;50.956;3.106;2022-08-01T07:54:55;1.15;;;1.08;;
17917;SDS011;9084;50.956;3.106;2022-08-01T07:57:24;1.25;;;0.90;;
17917;SDS011;9084;50.956;3.106;2022-08-01T07:59:53;1.50;;;0.80;;
17917;SDS011;9084;50.956;3.106;2022-08-01T08:02:19;2.58;;;1.38;;
17917;SDS011;9084;50.956;3.106;2022-08-01T08:04:47;2.30;;;1.33;;
17917;SDS011;9084;50.956;3.106;2022-08-01T08:07:15;1.88;;;1.65;;
17917;SDS011;9084;50.956;3.106;2022-08-01T08:09:41;1.77;;;1.42;;
17917;SDS011;9084;50.956;3.106;2022-08-01T08:12:07;1.55;;;1.08;;
17917;SDS011;9084;50.956;3.106;2022-08-01T08:14:37;1.85;;;1.40;;
17917;SDS011;9084;50.956;3.106;2022-08-01T08:17:02;1.92;;;1.30;;
17917;SDS011;9084;50.956;3.106;2022-08-01T08:19:29;1.20;;;1.10;;
17917;SDS011;9084;50.956;3.106;2022-08-01T08:21:57;1.40;;;1.10;;
17917;SDS011;9084;50.956;3.106;2022-08-01T08:24:24;2.45;;;1.27;;
17917;SDS011;9084;50.956;3.106;2022-08-01T08:27:12;2.92;;;1.50;;
17917;SDS011;9084;50.956;3.106;2022-08-01T08:29:40;2.13;;;1.60;;
17917;SDS011;9084;50.956;3.106;2022-08-01T08:32:06;3.03;;;1.70;;
17917;SDS011;9084;50.956;3.106;2022-08-01T08:34:35;2.28;;;1.88;;
17917;SDS011;9084;50.956;3.106;2022-08-01T08:37:04;4.10;;;2.60;;
17917;SDS011;9084;50.956;3.106;2022-08-01T08:39:29;1.60;;;1.48;;
17917;SDS011;9084;50.956;3.106;2022-08-01T08:41:59;3.08;;;1.52;;
17917;SDS011;9084;50.956;3.106;2022-08-01T08:44:30;2.17;;;1.38;;
17917;SDS011;9084;50.956;3.106;2022-08-01T08:46:56;3.67;;;1.50;;
17917;SDS011;9084;50.956;3.106;2022-08-01T08:49:27;2.35;;;1.45;;
17917;SDS011;9084;50.956;3.106;2022-08-01T08:51:57;3.05;;;1.40;;
17917;SDS011;9084;50.956;3.106;2022-08-01T08:54:25;2.42;;;1.40;;
17917;SDS011;9084;50.956;3.106;2022-08-01T08:56:53;1.60;;;1.02;;
17917;SDS011;9084;50.956;3.106;2022-08-01T08:59:20;1.23;;;1.08;;
17917;SDS011;9084;50.956;3.106;2022-08-01T09:01:46;2.38;;;1.08;;
17917;SDS011;9084;50.956;3.106;2022-08-01T09:04:13;1.30;;;1.20;;
17917;SDS011;9084;50.956;3.106;2022-08-01T09:06:39;1.77;;;1.15;;
17917;SDS011;9084;50.956;3.106;2022-08-01T09:09:06;2.17;;;1.20;;
17917;SDS011;9084;50.956;3.106;2022-08-01T09:11:32;1.13;;;0.93;;
17917;SDS011;9084;50.956;3.106;2022-08-01T09:14:13;2.35;;;1.05;;
17917;SDS011;9084;50.956;3.106;2022-08-01T09:16:47;2.03;;;1.00;;
17917;SDS011;9084;50.956;3.106;2022-08-01T09:19:50;2.03;;;1.05;;
17917;SDS011;9084;50.956;3.106;2022-08-01T09:22:18;1.63;;;1.30;;
17917;SDS011;9084;50.956;3.106;2022-08-01T09:27:23;1.33;;;1.00;;
17917;SDS011;9084;50.956;3.106;2022-08-01T09:29:50;1.60;;;1.40;;
17917;SDS011;9084;50.956;3.106;2022-08-01T09:32:18;1.40;;;1.10;;
17917;SDS011;9084;50.956;3.106;2022-08-01T09:34:44;1.95;;;1.25;;
17917;SDS011;9084;50.956;3.106;2022-08-01T09:37:13;1.10;;;1.00;;
17917;SDS011;9084;50.956;3.106;2022-08-01T09:39:42;1.10;;;1.00;;
17917;SDS011;9084;50.956;3.106;2022-08-01T09:42:25;1.85;;;1.17;;
17917;SDS011;9084;50.956;3.106;2022-08-01T09:44:52;2.75;;;1.40;;
17917;SDS011;9084;50.956;3.106;2022-08-01T09:47:18;1.98;;;1.30;;
17917;SDS011;9084;50.956;3.106;2022-08-01T09:49:55;2.30;;;1.15;;
17917;SDS011;9084;50.956;3.106;2022-08-01T09:52:23;1.55;;;1.38;;
17917;SDS011;9084;50.956;3.106;2022-08-01T09:54:54;1.38;;;1.10;;
17917;SDS011;9084;50.956;3.106;2022-08-01T09:57:21;2.17;;;1.25;;
17917;SDS011;9084;50.956;3.106;2022-08-01T09:59:50;1.55;;;1.33;;
17917;SDS011;9084;50.956;3.106;2022-08-01T10:02:27;1.30;;;1.00;;
17917;SDS011;9084;50.956;3.106;2022-08-01T10:05:02;0.80;;;0.80;;
17917;SDS011;9084;50.956;3.106;2022-08-01T10:07:30;3.40;;;1.48;;
17917;SDS011;9084;50.956;3.106;2022-08-01T10:10:08;1.83;;;1.00;;
17917;SDS011;9084;50.956;3.106;2022-08-01T10:12:35;1.40;;;0.85;;
17917;SDS011;9084;50.956;3.106;2022-08-01T10:15:03;3.13;;;1.00;;
17917;SDS011;9084;50.956;3.106;2022-08-01T10:17:29;1.00;;;0.98;;
17917;SDS011;9084;50.956;3.106;2022-08-01T10:19:55;1.52;;;1.13;;
17917;SDS011;9084;50.956;3.106;2022-08-01T10:22:24;1.13;;;1.08;;
17917;SDS011;9084;50.956;3.106;2022-08-01T10:24:54;2.10;;;1.50;;
17917;SDS011;9084;50.956;3.106;2022-08-01T10:27:20;1.45;;;1.25;;
17917;SDS011;9084;50.956;3.106;2022-08-01T10:29:58;2.25;;;1.65;;
17917;SDS011;9084;50.956;3.106;2022-08-01T10:32:34;1.45;;;1.35;;
17917;SDS011;9084;50.956;3.106;2022-08-01T10:35:04;1.13;;;1.00;;
17917;SDS011;9084;50.956;3.106;2022-08-01T10:37:33;2.05;;;1.45;;
17917;SDS011;9084;50.956;3.106;2022-08-01T10:40:03;1.30;;;1.05;;
17917;SDS011;9084;50.956;3.106;2022-08-01T10:42:33;3.55;;;1.15;;
17917;SDS011;9084;50.956;3.106;2022-08-01T10:44:59;1.67;;;1.50;;
17917;SDS011;9084;50.956;3.106;2022-08-01T10:47:27;2.95;;;1.40;;
17917;SDS011;9084;50.956;3.106;2022-08-01T10:52:41;1.40;;;1.30;;
17917;SDS011;9084;50.956;3.106;2022-08-01T10:55:27;1.45;;;1.20;;
17917;SDS011;9084;50.956;3.106;2022-08-01T10:57:53;1.50;;;1.10;;
17917;SDS011;9084;50.956;3.106;2022-08-01T11:00:20;1.35;;;0.90;;
17917;SDS011;9084;50.956;3.106;2022-08-01T11:02:59;0.80;;;0.80;;
17917;SDS011;9084;50.956;3.106;2022-08-01T11:05:30;2.03;;;1.08;;
17917;SDS011;9084;50.956;3.106;2022-08-01T11:07:59;1.27;;;1.00;;
17917;SDS011;9084;50.956;3.106;2022-08-01T11:13:00;1.75;;;1.10;;
17917;SDS011;9084;50.956;3.106;2022-08-01T11:15:28;1.15;;;0.82;;
17917;SDS011;9084;50.956;3.106;2022-08-01T11:17:57;1.33;;;1.02;;
17917;SDS011;9084;50.956;3.106;2022-08-01T11:20:26;1.23;;;1.13;;
17917;SDS011;9084;50.956;3.106;2022-08-01T11:30:41;1.52;;;1.10;;
17917;SDS011;9084;50.956;3.106;2022-08-01T11:33:15;1.70;;;1.10;;
17917;SDS011;9084;50.956;3.106;2022-08-01T11:38:38;1.92;;;0.90;;
17917;SDS011;9084;50.956;3.106;2022-08-01T11:41:27;1.75;;;1.35;;
17917;SDS011;9084;50.956;3.106;2022-08-01T11:44:04;3.33;;;1.13;;
17917;SDS011;9084;50.956;3.106;2022-08-01T11:57:11;1.52;;;1.42;;
17917;SDS011;9084;50.956;3.106;2022-08-01T11:59:46;1.60;;;1.20;;
17917;SDS011;9084;50.956;3.106;2022-08-01T12:02:21;1.35;;;1.25;;
17917;SDS011;9084;50.956;3.106;2022-08-01T12:07:18;1.10;;;0.90;;
17917;SDS011;9084;50.956;3.106;2022-08-01T12:09:45;1.17;;;1.08;;
17917;SDS011;9084;50.956;3.106;2022-08-01T12:12:14;1.20;;;0.90;;
17917;SDS011;9084;50.956;3.106;2022-08-01T12:14:42;1.27;;;1.05;;
17917;SDS011;9084;50.956;3.106;2022-08-01T12:17:08;2.97;;;1.42;;
17917;SDS011;9084;50.956;3.106;2022-08-01T12:19:34;1.40;;;1.00;;
17917;SDS011;9084;50.956;3.106;2022-08-01T12:22:21;1.38;;;0.90;;
17917;SDS011;9084;50.956;3.106;2022-08-01T12:24:48;0.70;;;0.70;;
17917;SDS011;9084;50.956;3.106;2022-08-01T12:27:23;0.90;;;0.80;;
17917;SDS011;9084;50.956;3.106;2022-08-01T12:29:53;2.20;;;1.25;;
17917;SDS011;9084;50.956;3.106;2022-08-01T12:32:29;3.30;;;1.00;;
17917;SDS011;9084;50.956;3.106;2022-08-01T12:35:01;1.33;;;0.85;;
17917;SDS011;9084;50.956;3.106;2022-08-01T12:37:39;1.00;;;0.80;;
17917;SDS011;9084;50.956;3.106;2022-08-01T12:42:40;0.82;;;0.80;;
17917;SDS011;9084;50.956;3.106;2022-08-01T12:45:11;1.75;;;1.15;;
17917;SDS011;9084;50.956;3.106;2022-08-01T12:47:41;1.15;;;0.98;;
17917;SDS011;9084;50.956;3.106;2022-08-01T12:50:08;1.55;;;1.27;;
17917;SDS011;9084;50.956;3.106;2022-08-01T12:52:42;1.10;;;1.00;;
17917;SDS011;9084;50.956;3.106;2022-08-01T12:55:12;1.08;;;0.80;;
17917;SDS011;9084;50.956;3.106;2022-08-01T12:57:41;1.10;;;0.77;;
17917;SDS011;9084;50.956;3.106;2022-08-01T13:00:19;0.90;;;0.90;;
17917;SDS011;9084;50.956;3.106;2022-08-01T13:02:58;2.47;;;0.80;;
17917;SDS011;9084;50.956;3.106;2022-08-01T13:08:19;1.85;;;1.23;;
17917;SDS011;9084;50.956;3.106;2022-08-01T13:10:49;2.17;;;1.20;;
17917;SDS011;9084;50.956;3.106;2022-08-01T13:13:16;1.98;;;1.23;;
17917;SDS011;9084;50.956;3.106;2022-08-01T13:15:48;1.98;;;1.08;;
17917;SDS011;9084;50.956;3.106;2022-08-01T13:18:32;1.25;;;0.85;;
17917;SDS011;9084;50.956;3.106;2022-08-01T13:21:10;0.90;;;0.90;;
17917;SDS011;9084;50.956;3.106;2022-08-01T13:23:36;2.25;;;0.85;;
17917;SDS011;9084;50.956;3.106;2022-08-01T13:26:03;2.50;;;1.17;;
17917;SDS011;9084;50.956;3.106;2022-08-01T13:28:30;1.73;;;1.02;;
17917;SDS011;9084;50.956;3.106;2022-08-01T13:31:00;0.80;;;0.63;;
17917;SDS011;9084;50.956;3.106;2022-08-01T13:33:43;0.68;;;0.68;;
17917;SDS011;9084;50.956;3.106;2022-08-01T13:36:11;1.63;;;0.85;;
17917;SDS011;9084;50.956;3.106;2022-08-01T13:38:42;1.20;;;0.77;;
17917;SDS011;9084;50.956;3.106;2022-08-01T13:41:33;1.77;;;1.00;;
17917;SDS011;9084;50.956;3.106;2022-08-01T13:43:59;1.70;;;0.90;;
17917;SDS011;9084;50.956;3.106;2022-08-01T13:46:25;1.08;;;0.98;;
17917;SDS011;9084;50.956;3.106;2022-08-01T13:48:51;1.20;;;1.10;;
17917;SDS011;9084;50.956;3.106;2022-08-01T13:51:17;1.15;;;1.00;;
17917;SDS011;9084;50.956;3.106;2022-08-01T13:53:48;2.58;;;0.93;;
17917;SDS011;9084;50.956;3.106;2022-08-01T13:56:19;2.85;;;0.80;;
17917;SDS011;9084;50.956;3.106;2022-08-01T13:58:48;1.13;;;0.90;;
17917;SDS011;9084;50.956;3.106;2022-08-01T14:01:14;1.23;;;0.90;;
17917;SDS011;9084;50.956;3.106;2022-08-01T14:03:40;0.85;;;0.77;;
17917;SDS011;9084;50.956;3.106;2022-08-01T14:06:08;2.13;;;0.90;;
17917;SDS011;9084;50.956;3.106;2022-08-01T14:08:36;0.70;;;0.70;;
17917;SDS011;9084;50.956;3.106;2022-08-01T14:11:02;1.00;;;0.82;;
17917;SDS011;9084;50.956;3.106;2022-08-01T14:13:28;1.35;;;1.10;;
17917;SDS011;9084;50.956;3.106;2022-08-01T14:15:53;0.98;;;0.80;;
17917;SDS011;9084;50.956;3.106;2022-08-01T14:18:22;2.30;;;0.90;;
17917;SDS011;9084;50.956;3.106;2022-08-01T14:20:47;0.80;;;0.80;;
17917;SDS011;9084;50.956;3.106;2022-08-01T14:23:16;1.88;;;1.27;;
17917;SDS011;9084;50.956;3.106;2022-08-01T14:25:42;0.90;;;0.88;;
17917;SDS011;9084;50.956;3.106;2022-08-01T14:28:13;1.25;;;0.90;;
17917;SDS011;9084;50.956;3.106;2022-08-01T14:30:39;1.02;;;0.90;;
17917;SDS011;9084;50.956;3.106;2022-08-01T14:33:06;1.83;;;1.10;;
17917;SDS011;9084;50.956;3.106;2022-08-01T14:35:34;1.35;;;1.10;;
17917;SDS011;9084;50.956;3.106;2022-08-01T14:37:59;3.70;;;1.52;;
17917;SDS011;9084;50.956;3.106;2022-08-01T14:40:25;1.33;;;1.10;;
17917;SDS011;9084;50.956;3.106;2022-08-01T14:42:51;2.05;;;1.25;;
17917;SDS011;9084;50.956;3.106;2022-08-01T14:45:17;2.13;;;1.13;;
17917;SDS011;9084;50.956;3.106;2022-08-01T14:47:43;0.80;;;0.80;;
17917;SDS011;9084;50.956;3.106;2022-08-01T14:50:10;1.55;;;1.00;;
17917;SDS011;9084;50.956;3.106;2022-08-01T14:52:38;3.92;;;1.27;;
17917;SDS011;9084;50.956;3.106;2022-08-01T14:55:05;1.95;;;1.27;;
17917;SDS011;9084;50.956;3.106;2022-08-01T14:57:33;2.00;;;1.00;;
17917;SDS011;9084;50.956;3.106;2022-08-01T15:00:03;2.80;;;1.17;;
17917;SDS011;9084;50.956;3.106;2022-08-01T15:02:30;1.95;;;1.15;;
17917;SDS011;9084;50.956;3.106;2022-08-01T15:05:01;0.90;;;0.90;;
17917;SDS011;9084;50.956;3.106;2022-08-01T15:07:30;2.05;;;1.20;;
17917;SDS011;9084;50.956;3.106;2022-08-01T15:09:56;2.72;;;1.20;;
17917;SDS011;9084;50.956;3.106;2022-08-01T15:12:22;1.15;;;0.90;;
17917;SDS011;9084;50.956;3.106;2022-08-01T15:14:50;2.50;;;1.08;;
17917;SDS011;9084;50.956;3.106;2022-08-01T15:17:20;2.85;;;1.20;;
17917;SDS011;9084;50.956;3.106;2022-08-01T15:19:47;2.05;;;1.00;;
17917;SDS011;9084;50.956;3.106;2022-08-01T15:22:18;1.67;;;1.20;;
17917;SDS011;9084;50.956;3.106;2022-08-01T15:24:49;3.83;;;1.10;;
17917;SDS011;9084;50.956;3.106;2022-08-01T15:27:16;1.05;;;0.80;;
17917;SDS011;9084;50.956;3.106;2022-08-01T15:29:42;1.27;;;0.90;;
17917;SDS011;9084;50.956;3.106;2022-08-01T15:32:08;1.83;;;0.70;;
17917;SDS011;9084;50.956;3.106;2022-08-01T15:34:35;1.95;;;0.95;;
17917;SDS011;9084;50.956;3.106;2022-08-01T15:37:02;1.40;;;1.00;;
17917;SDS011;9084;50.956;3.106;2022-08-01T15:39:28;2.70;;;0.88;;
17917;SDS011;9084;50.956;3.106;2022-08-01T15:41:57;1.63;;;1.00;;
17917;SDS011;9084;50.956;3.106;2022-08-01T15:44:32;5.80;;;1.13;;
17917;SDS011;9084;50.956;3.106;2022-08-01T15:46:58;1.15;;;0.85;;
17917;SDS011;9084;50.956;3.106;2022-08-01T15:49:27;1.75;;;1.17;;
17917;SDS011;9084;50.956;3.106;2022-08-01T15:51:55;1.05;;;0.82;;
17917;SDS011;9084;50.956;3.106;2022-08-01T15:54:22;2.67;;;1.15;;
17917;SDS011;9084;50.956;3.106;2022-08-01T15:56:50;1.20;;;1.10;;
17917;SDS011;9084;50.956;3.106;2022-08-01T15:59:16;3.95;;;1.35;;
17917;SDS011;9084;50.956;3.106;2022-08-01T16:01:46;2.05;;;0.93;;
17917;SDS011;9084;50.956;3.106;2022-08-01T16:04:13;1.23;;;0.90;;
17917;SDS011;9084;50.956;3.106;2022-08-01T16:06:40;2.10;;;1.05;;